Hodges Gap, North Carolina
Current Conditions -  °F | °C
As of 5:55 PM on Tuesday 21 Oct 2014 (Local Time) from KTNB Reporting Station
Clear Clear  
Wind Chill: 51°   Ceiling: Unl
Heat Index: 51°   Visibility: 10mi
Dew Point: 35°   Wind: 16mph
Humidity: 54%   Direction: 310°NW
Pressure: 29.96"   Gusts: 30mph
Location:  36.2085°N, 81.6605°W
Report Text: KTNB 212155Z AUTO 31014G26KT 10SM CLR 11/02 A2996 RMK AO2 T01070017
Loading
Personal Weather Stations






























Interactive Weather Map
Tropical Storm Tracking
New forecast layout! Learn more

10-Day Weather Forecast

Advertisements
Track Severe Weather on mobile